Time;durP1;ratioP1;P1;durP2;ratioP2;P2;SDS_P1;SDS_P2;PMS_P1;PMS_P2;Temp;Humidity;BMP_temperature;BMP_pressure;BME280_temperature;BME280_humidity;BME280_pressure;Samples;Min_cycle;Max_cycle;Signal;HPM_P1;HPM_P2
2021/01/10 00:01:25;;;;;;;6.05;4.65;;;;;;;12.56;50.37;101358.44;4905320;28;115511;-61
2021/01/10 00:03:51;;;;;;;6.18;4.82;;;;;;;12.57;50.28;101363.59;4922436;28;112521;-61
2021/01/10 00:06:17;;;;;;;7.10;4.60;;;;;;;12.55;50.45;101354.13;4923076;28;97740;-61
2021/01/10 00:08:43;;;;;;;6.03;4.70;;;;;;;12.56;50.43;101358.44;4920078;28;128232;-61
2021/01/10 00:11:09;;;;;;;7.07;4.70;;;;;;;12.57;50.17;101358.16;4920479;28;102347;-61
2021/01/10 00:13:35;;;;;;;7.00;4.95;;;;;;;12.55;50.36;101357.63;4921944;28;127036;-61
2021/01/10 00:16:01;;;;;;;6.10;4.93;;;;;;;12.57;50.62;101360.06;4922101;28;117851;-61
2021/01/10 00:18:27;;;;;;;6.03;4.85;;;;;;;12.55;50.50;101359.53;4919839;28;127840;-61
2021/01/10 00:20:53;;;;;;;6.50;4.95;;;;;;;12.56;50.12;101353.03;4922191;28;125594;-61
2021/01/10 00:23:19;;;;;;;6.40;4.70;;;;;;;12.57;50.37;101366.28;4920111;28;110057;-61
2021/01/10 00:25:45;;;;;;;6.20;4.57;;;;;;;12.57;50.31;101355.47;4904893;28;98155;-61
2021/01/10 00:28:11;;;;;;;5.72;4.25;;;;;;;12.56;50.35;101356.56;4921612;28;127311;-61
2021/01/10 00:30:37;;;;;;;6.80;5.00;;;;;;;12.58;50.36;101365.22;4920032;28;128986;-61
2021/01/10 00:33:03;;;;;;;5.80;4.50;;;;;;;12.57;50.29;101365.47;4922028;28;128201;-61
2021/01/10 00:35:29;;;;;;;6.70;4.28;;;;;;;12.56;50.36;101364.66;4918574;28;101632;-61
2021/01/10 00:37:56;;;;;;;6.70;4.80;;;;;;;12.59;50.34;101368.75;4894941;28;117890;-61
2021/01/10 00:40:23;;;;;;;5.97;4.47;;;;;;;12.56;50.29;101361.97;4882814;28;111627;-61
2021/01/10 00:42:49;;;;;;;6.00;4.50;;;;;;;12.56;50.21;101372.78;4901405;28;101982;-61
2021/01/10 00:45:17;;;;;;;6.03;4.65;;;;;;;12.55;50.38;101367.63;4903204;28;97882;-61
2021/01/10 00:47:43;;;;;;;6.25;4.65;;;;;;;12.56;50.34;101372.78;4902469;28;98524;-62
2021/01/10 00:50:10;;;;;;;6.25;5.03;;;;;;;12.56;50.31;101363.84;4903770;28;98631;-61
2021/01/10 00:52:36;;;;;;;6.28;4.80;;;;;;;12.58;50.30;101375.25;4901838;28;97835;-61
2021/01/10 00:55:03;;;;;;;5.65;4.60;;;;;;;12.56;50.52;101386.28;4903376;28;97878;-61
2021/01/10 00:57:29;;;;;;;5.65;4.63;;;;;;;12.55;50.39;101373.84;4913920;28;98810;-61
2021/01/10 00:59:56;;;;;;;6.15;5.00;;;;;;;12.55;50.69;101384.69;4922254;28;98177;-61
2021/01/10 01:02:22;;;;;;;6.57;4.75;;;;;;;12.57;50.55;101384.41;4921515;28;99939;-61
2021/01/10 01:04:48;;;;;;;6.57;4.97;;;;;;;12.57;50.17;101397.94;4921404;28;116390;-61
2021/01/10 01:07:14;;;;;;;6.43;4.80;;;;;;;12.55;50.37;101394.69;4921002;28;125558;-61
2021/01/10 01:09:40;;;;;;;6.35;4.95;;;;;;;12.54;50.38;101399.28;4920417;28;122314;-61
2021/01/10 01:12:07;;;;;;;6.22;4.88;;;;;;;12.56;50.32;101399.00;4921349;28;98012;-61
2021/01/10 01:14:33;;;;;;;6.28;4.80;;;;;;;12.55;50.12;101406.31;4921430;28;106247;-61
2021/01/10 01:16:59;;;;;;;6.03;4.78;;;;;;;12.55;50.23;101413.63;4921919;28;98502;-61
2021/01/10 01:19:25;;;;;;;6.68;4.70;;;;;;;12.55;50.35;101403.59;4920136;28;126264;-61
2021/01/10 01:21:54;;;;;;;6.05;4.60;;;;;;;12.54;50.34;101415.50;4922718;28;98428;-61
2021/01/10 01:24:21;;;;;;;6.05;4.68;;;;;;;12.55;50.23;101413.63;4912605;28;97840;-62
2021/01/10 01:26:48;;;;;;;6.65;4.82;;;;;;;12.54;50.21;101401.97;4884961;28;98517;-61
2021/01/10 01:29:15;;;;;;;6.55;4.55;;;;;;;12.55;50.06;101413.63;4900405;28;112989;-61
2021/01/10 01:31:41;;;;;;;5.53;4.57;;;;;;;12.53;50.33;101406.53;4884096;28;103263;-61
2021/01/10 01:34:07;;;;;;;6.35;4.68;;;;;;;12.56;50.32;101407.13;4893631;28;118278;-61
2021/01/10 01:36:33;;;;;;;5.85;4.40;;;;;;;12.53;50.23;101403.03;4901180;28;127908;-61
2021/01/10 01:39:00;;;;;;;5.15;4.05;;;;;;;12.55;50.20;101414.44;4893354;28;113953;-61
2021/01/10 01:41:27;;;;;;;5.45;4.00;;;;;;;12.57;50.29;101414.16;4902096;28;97970;-61
2021/01/10 01:43:53;;;;;;;5.28;4.40;;;;;;;12.56;50.22;101412.53;4893695;28;98363;-61
2021/01/10 01:46:29;;;;;;;5.53;4.25;;;;;;;12.57;50.28;101411.44;4902412;28;98626;-61
2021/01/10 01:48:57;;;;;;;6.25;4.50;;;;;;;12.59;50.26;101426.34;4892865;28;98620;-61
2021/01/10 01:51:24;;;;;;;5.60;4.28;;;;;;;12.59;50.18;101422.84;4901575;28;98282;-62
2021/01/10 01:53:50;;;;;;;6.13;4.25;;;;;;;12.57;50.22;101414.97;4899682;28;97725;-61
2021/01/10 01:56:16;;;;;;;5.82;4.30;;;;;;;12.58;50.18;101413.91;4921497;28;98552;-61
2021/01/10 01:59:15;;;;;;;5.97;4.28;;;;;;;12.52;50.25;101414.94;4903300;28;99050;-61
2021/01/10 02:01:41;;;;;;;6.38;4.75;;;;;;;12.57;50.32;101414.16;4885788;28;126322;-61
2021/01/10 02:05:01;;;;;;;6.00;4.50;;;;;;;12.53;50.22;101414.66;4921771;28;97724;-61
2021/01/10 02:07:59;;;;;;;5.97;4.47;;;;;;;12.53;50.24;101416.56;4920595;28;119314;-61
2021/01/10 02:10:30;;;;;;;6.22;4.65;;;;;;;12.54;50.13;101415.50;4918370;28;118967;-61
2021/01/10 02:13:01;;;;;;;6.05;4.85;;;;;;;12.55;50.18;101419.03;4876822;28;98079;-61
2021/01/10 02:15:31;;;;;;;6.78;4.80;;;;;;;12.59;50.20;101414.72;4900427;28;98078;-61
2021/01/10 02:17:57;;;;;;;5.97;4.90;;;;;;;12.57;50.15;101414.97;4883894;28;98635;-61
2021/01/10 02:20:34;;;;;;;6.43;4.68;;;;;;;12.53;50.02;101413.84;4893854;28;98523;-61
2021/01/10 02:23:20;;;;;;;5.78;4.18;;;;;;;12.55;50.20;101416.31;4902926;28;98413;-61
2021/01/10 02:25:47;;;;;;;6.47;4.65;;;;;;;12.55;50.16;101419.84;4902815;28;98128;-61
2021/01/10 02:28:15;;;;;;;6.10;4.72;;;;;;;12.59;49.92;101422.84;4918418;28;114268;-61
2021/01/10 02:30:42;;;;;;;6.18;4.55;;;;;;;12.57;50.13;101416.84;4892638;28;120117;-62
2021/01/10 02:33:39;;;;;;;6.00;4.53;;;;;;;12.55;50.09;101409.00;4871225;28;98064;-61
2021/01/10 02:36:22;;;;;;;6.00;4.53;;;;;;;12.56;50.22;101415.22;4889782;28;98025;-61
2021/01/10 02:39:22;;;;;;;5.70;4.35;;;;;;;12.58;50.27;101423.94;4889050;28;98581;-61
2021/01/10 02:41:53;;;;;;;6.32;4.60;;;;;;;12.56;50.01;101423.34;4838137;28;98514;-61
2021/01/10 02:44:44;;;;;;;6.40;4.80;;;;;;;12.52;50.24;101428.44;4885716;28;116981;-61
2021/01/10 02:47:10;;;;;;;5.68;4.30;;;;;;;12.53;50.21;101424.66;4896397;28;110020;-61
2021/01/10 02:49:36;;;;;;;5.85;4.45;;;;;;;12.53;50.15;101432.78;4904147;28;128110;-61
2021/01/10 02:52:03;;;;;;;5.70;4.55;;;;;;;12.56;50.01;101431.47;4903675;28;126801;-61
2021/01/10 02:54:29;;;;;;;6.43;4.65;;;;;;;12.56;50.09;101426.88;4904687;28;97840;-61
2021/01/10 02:57:00;;;;;;;5.95;4.40;;;;;;;12.53;50.06;101425.47;4904040;28;116241;-61
2021/01/10 02:59:28;;;;;;;6.00;4.40;;;;;;;12.55;50.17;101430.66;4886150;28;118798;-61
2021/01/10 03:01:57;;;;;;;5.50;4.10;;;;;;;12.55;49.89;101425.25;4904828;28;113189;-61
2021/01/10 03:04:23;;;;;;;5.90;4.80;;;;;;;12.53;50.33;101427.38;4886368;28;108073;-61
2021/01/10 03:06:52;;;;;;;6.05;4.68;;;;;;;12.55;49.85;101419.84;4887171;28;97885;-61
2021/01/10 03:09:18;;;;;;;5.70;4.63;;;;;;;12.57;49.78;101425.78;4887000;28;98678;-61
2021/01/10 03:11:44;;;;;;;6.03;4.50;;;;;;;12.60;49.81;101427.97;4884405;28;128856;-61
2021/01/10 03:14:10;;;;;;;5.38;4.32;;;;;;;12.64;49.70;101431.00;4901134;28;127125;-61
2021/01/10 03:16:37;;;;;;;7.05;4.78;;;;;;;12.68;49.63;101435.63;4904142;28;116496;-62
2021/01/10 03:19:03;;;;;;;6.03;4.53;;;;;;;12.68;49.65;101429.41;4885021;28;129712;-61
2021/01/10 03:21:29;;;;;;;5.97;4.57;;;;;;;12.69;49.50;101423.75;4901870;28;100484;-61
2021/01/10 03:23:55;;;;;;;6.93;4.78;;;;;;;12.70;49.42;101428.09;4885977;28;119536;-61
2021/01/10 03:26:22;;;;;;;6.60;4.65;;;;;;;12.73;49.58;101424.03;4904398;28;97956;-62
2021/01/10 03:28:48;;;;;;;6.93;4.95;;;;;;;12.73;49.38;101424.03;4904191;28;117497;-61
2021/01/10 03:31:14;;;;;;;6.50;4.97;;;;;;;12.73;49.23;101424.88;4903273;28;129496;-61
2021/01/10 03:33:45;;;;;;;5.65;4.40;;;;;;;12.72;49.48;101425.91;4902911;28;127550;-61
2021/01/10 03:36:15;;;;;;;5.57;4.40;;;;;;;12.72;49.41;101423.22;4904121;28;97786;-61
2021/01/10 03:38:41;;;;;;;5.57;4.47;;;;;;;12.72;49.48;101420.50;4884649;28;123780;-61
2021/01/10 03:41:08;;;;;;;5.90;4.50;;;;;;;12.72;49.38;101420.50;4903330;28;99049;-61
2021/01/10 03:43:34;;;;;;;6.10;4.78;;;;;;;12.72;49.39;101422.41;4903820;28;119717;-61
2021/01/10 03:46:03;;;;;;;6.22;4.43;;;;;;;12.72;49.27;101428.63;4904194;28;97865;-61
2021/01/10 03:48:32;;;;;;;6.28;4.65;;;;;;;12.72;49.55;101425.09;4903332;28;117528;-61
2021/01/10 03:50:58;;;;;;;6.30;4.90;;;;;;;12.70;49.59;101425.38;4901647;28;99388;-61
2021/01/10 03:53:24;;;;;;;6.82;4.95;;;;;;;12.73;49.11;101421.31;4902955;28;127476;-62
2021/01/10 03:55:50;;;;;;;6.22;4.68;;;;;;;12.71;49.46;101426.19;4902942;28;115289;-61
2021/01/10 03:58:16;;;;;;;6.43;5.07;;;;;;;12.70;49.41;101421.84;4903070;28;120605;-61
2021/01/10 04:00:42;;;;;;;6.97;5.13;;;;;;;12.70;49.56;101414.56;4902756;28;126451;-61
2021/01/10 04:03:08;;;;;;;6.85;5.00;;;;;;;12.70;49.34;101416.44;4902866;28;128030;-61
2021/01/10 04:05:34;;;;;;;6.60;5.10;;;;;;;12.70;49.44;101428.09;4902154;28;106799;-61
2021/01/10 04:08:00;;;;;;;6.43;5.03;;;;;;;12.72;49.16;101422.41;4902602;28;115746;-61
2021/01/10 04:10:26;;;;;;;6.97;5.05;;;;;;;12.72;49.32;101422.41;4902543;28;129472;-61
2021/01/10 04:12:52;;;;;;;7.40;5.40;;;;;;;12.70;49.42;101417.25;4903821;28;98033;-62
2021/01/10 04:15:18;;;;;;;8.27;5.55;;;;;;;12.69;49.47;101426.47;4903790;28;98117;-61
2021/01/10 04:17:44;;;;;;;6.18;4.93;;;;;;;12.69;49.33;101420.19;4902715;28;126131;-61
2021/01/10 04:20:11;;;;;;;7.03;5.53;;;;;;;12.68;49.30;101427.50;4885087;28;127214;-61
2021/01/10 04:22:37;;;;;;;6.90;5.15;;;;;;;12.71;49.49;101426.19;4884352;28;114620;-61
2021/01/10 04:25:04;;;;;;;7.53;5.32;;;;;;;12.68;49.56;101432.91;4908559;28;117150;-61
2021/01/10 04:27:30;;;;;;;7.90;5.68;;;;;;;12.69;49.38;101428.31;4901960;28;118329;-61
2021/01/10 04:29:56;;;;;;;7.57;5.78;;;;;;;12.68;49.49;101432.91;4900691;28;127922;-62
2021/01/10 04:32:22;;;;;;;7.10;5.53;;;;;;;12.70;49.32;101435.38;4901404;28;126619;-61
2021/01/10 04:34:48;;;;;;;7.88;5.80;;;;;;;12.68;49.14;101435.63;4903785;28;97667;-60
2021/01/10 04:37:14;;;;;;;6.85;5.32;;;;;;;12.67;49.72;101431.28;4902726;28;101970;-61
2021/01/10 04:39:40;;;;;;;7.70;5.53;;;;;;;12.67;49.41;101436.69;4902438;28;128081;-61
2021/01/10 04:42:06;;;;;;;7.43;5.55;;;;;;;12.68;49.52;101432.91;4901972;28;128324;-61
2021/01/10 04:44:32;;;;;;;8.25;6.00;;;;;;;12.68;49.42;101440.22;4885361;28;97827;-61
2021/01/10 04:46:58;;;;;;;8.75;5.70;;;;;;;12.67;49.20;101439.41;4900207;28;128837;-61
2021/01/10 04:49:24;;;;;;;8.00;5.82;;;;;;;12.68;49.42;101445.63;4883765;28;126497;-61
2021/01/10 04:51:50;;;;;;;7.40;5.72;;;;;;;12.67;49.64;101439.41;4884138;28;127462;-61
2021/01/10 04:54:16;;;;;;;7.72;5.80;;;;;;;12.67;49.21;101444.81;4884298;28;109070;-61
2021/01/10 04:56:43;;;;;;;7.50;5.50;;;;;;;12.69;49.35;101449.97;4902168;28;128480;-61
2021/01/10 04:59:09;;;;;;;7.28;5.47;;;;;;;12.69;48.96;101442.69;4901701;28;98611;-60
2021/01/10 05:01:45;;;;;;;7.75;5.55;;;;;;;12.67;49.42;101444.81;4902436;28;98120;-61
2021/01/10 05:04:11;;;;;;;8.30;5.93;;;;;;;12.66;49.52;101455.91;4894809;28;97877;-61
2021/01/10 05:06:37;;;;;;;8.23;5.65;;;;;;;12.67;49.42;101450.22;4919006;28;102496;-61
2021/01/10 05:09:06;;;;;;;6.90;5.50;;;;;;;12.68;49.15;101448.34;4912154;28;127024;-61
2021/01/10 05:11:35;;;;;;;7.57;5.80;;;;;;;12.69;49.32;101453.50;4920139;28;98466;-61
2021/01/10 05:14:05;;;;;;;8.05;6.15;;;;;;;12.67;49.45;101449.41;4913807;28;97836;-61
2021/01/10 05:16:32;;;;;;;7.45;5.35;;;;;;;12.67;49.34;101449.41;4918742;28;113467;-61
2021/01/10 05:18:59;;;;;;;8.10;5.93;;;;;;;12.67;49.37;101444.81;4913539;28;98076;-61
2021/01/10 05:21:25;;;;;;;7.38;5.75;;;;;;;12.67;49.44;101444.81;4887924;28;97905;-61
2021/01/10 05:23:55;;;;;;;8.60;5.95;;;;;;;12.64;49.29;101442.63;4913887;28;97941;-61
2021/01/10 05:26:22;;;;;;;6.32;5.35;;;;;;;12.66;49.32;101447.78;4919381;28;98724;-61
2021/01/10 05:28:51;;;;;;;7.57;6.07;;;;;;;12.65;49.61;101446.94;4896323;28;98644;-61
2021/01/10 05:31:41;;;;;;;7.07;5.68;;;;;;;12.66;49.40;101445.09;4902950;28;97823;-61
2021/01/10 05:34:15;;;;;;;8.23;6.10;;;;;;;12.67;49.44;101450.22;4912786;28;97769;-61
2021/01/10 05:36:41;;;;;;;8.40;5.90;;;;;;;12.67;49.23;101450.22;4903140;28;104127;-61
2021/01/10 05:39:24;;;;;;;8.20;6.03;;;;;;;12.67;49.22;101449.41;4914204;28;98537;-61
2021/01/10 05:41:53;;;;;;;7.75;5.78;;;;;;;12.65;49.33;101444.25;4902903;28;98253;-61
2021/01/10 05:44:20;;;;;;;7.82;5.80;;;;;;;12.67;49.19;101442.13;4913345;28;98245;-61
2021/01/10 05:46:46;;;;;;;9.45;5.80;;;;;;;12.69;49.47;101439.97;4920074;28;98322;-61
2021/01/10 05:49:21;;;;;;;8.82;5.63;;;;;;;12.66;49.05;101434.28;4870653;28;109267;-61
2021/01/10 05:51:47;;;;;;;7.47;5.85;;;;;;;12.70;49.12;101438.91;4903819;28;97731;-61
2021/01/10 05:54:36;;;;;;;7.40;5.90;;;;;;;12.68;49.22;101438.31;4913231;28;97832;-61
2021/01/10 05:57:09;;;;;;;7.53;5.90;;;;;;;12.69;49.11;101437.28;4921666;28;98391;-61
2021/01/10 05:59:37;;;;;;;7.85;6.03;;;;;;;12.68;49.17;101445.63;4921500;28;98625;-61
2021/01/10 06:02:05;;;;;;;8.38;5.78;;;;;;;12.68;49.21;101442.94;4920868;28;98334;-61
2021/01/10 06:04:31;;;;;;;7.65;5.90;;;;;;;12.69;49.21;101455.38;4917972;28;97765;-61
2021/01/10 06:06:58;;;;;;;7.65;6.00;;;;;;;12.70;49.06;101446.19;4921192;28;98795;-61
2021/01/10 06:09:24;;;;;;;7.82;5.80;;;;;;;12.71;48.93;101450.53;4921200;28;98551;-61
2021/01/10 06:11:51;;;;;;;7.18;5.70;;;;;;;12.69;49.10;101450.81;4918246;28;97845;-61
2021/01/10 06:14:24;;;;;;;7.60;6.18;;;;;;;12.69;49.25;101460.78;4909992;28;98174;-62
2021/01/10 06:16:55;;;;;;;7.93;6.03;;;;;;;12.67;49.34;101455.63;4901134;28;99383;-61
2021/01/10 06:19:28;;;;;;;7.50;5.93;;;;;;;12.66;49.16;101455.91;4901267;28;98841;-62
2021/01/10 06:22:02;;;;;;;7.72;5.90;;;;;;;12.71;49.00;101467.56;4901918;28;98373;-62
2021/01/10 06:24:35;;;;;;;7.18;5.93;;;;;;;12.70;49.04;101471.38;4905943;28;98004;-61
2021/01/10 06:27:05;;;;;;;8.07;5.85;;;;;;;12.69;49.04;101471.59;4920985;28;98217;-62
2021/01/10 06:29:38;;;;;;;6.97;6.05;;;;;;;12.72;49.06;101471.91;4902535;28;118624;-62
2021/01/10 06:32:09;;;;;;;7.45;5.78;;;;;;;12.72;48.97;101473.78;4901835;28;114371;-63
2021/01/10 06:34:39;;;;;;;7.77;5.73;;;;;;;12.72;48.99;101477.31;4919785;28;98095;-62
2021/01/10 06:37:10;;;;;;;7.60;5.95;;;;;;;12.69;49.19;101477.00;4902888;28;98157;-61
2021/01/10 06:39:46;;;;;;;7.82;5.78;;;;;;;12.70;48.93;101471.38;4920113;28;98291;-62
2021/01/10 06:42:15;;;;;;;7.72;5.68;;;;;;;12.72;49.02;101476.50;4918887;28;98112;-62
2021/01/10 06:44:51;;;;;;;8.05;5.97;;;;;;;12.66;48.97;101472.94;4921485;28;97781;-62
2021/01/10 06:47:19;;;;;;;7.25;5.45;;;;;;;12.67;49.05;101481.88;4921434;28;98479;-62
2021/01/10 06:49:45;;;;;;;8.50;6.10;;;;;;;12.65;49.32;101473.19;4920953;28;99033;-62
2021/01/10 06:52:12;;;;;;;7.75;5.70;;;;;;;12.67;49.15;101474.56;4901848;28;105800;-62
2021/01/10 06:54:45;;;;;;;7.30;5.70;;;;;;;12.63;49.41;101473.44;4896501;28;97908;-62
2021/01/10 06:57:13;;;;;;;8.25;6.00;;;;;;;12.64;49.20;101482.38;4899252;28;98830;-62
2021/01/10 07:00:08;;;;;;;7.25;5.53;;;;;;;12.58;49.27;101475.31;4894862;28;98720;-62
2021/01/10 07:03:12;;;;;;;7.20;5.45;;;;;;;12.60;49.41;101473.97;4895417;28;98528;-62
2021/01/10 07:05:56;;;;;;;8.65;5.85;;;;;;;12.58;49.34;101480.72;4893934;28;97965;-61
2021/01/10 07:08:52;;;;;;;6.70;5.20;;;;;;;12.56;49.18;101480.97;4901197;28;98417;-62
2021/01/10 07:11:32;;;;;;;7.75;5.70;;;;;;;12.57;49.44;101487.19;4898671;28;118583;-62
2021/01/10 07:13:58;;;;;;;6.97;5.20;;;;;;;12.61;48.85;101499.13;4901357;28;98211;-62
2021/01/10 07:16:25;;;;;;;7.68;6.00;;;;;;;12.62;49.23;101485.34;4890998;28;97975;-62
2021/01/10 07:18:52;;;;;;;7.82;5.78;;;;;;;12.61;49.18;101485.59;4884617;28;98667;-61
2021/01/10 07:21:40;;;;;;;7.53;5.57;;;;;;;12.59;49.26;101493.16;4882706;28;118054;-62
2021/01/10 07:24:16;;;;;;;7.75;5.70;;;;;;;12.60;49.13;101489.38;4885459;28;98441;-62
2021/01/10 07:26:42;;;;;;;6.70;5.22;;;;;;;12.61;49.23;101483.69;4884745;28;98096;-62
2021/01/10 07:29:30;;;;;;;6.85;5.25;;;;;;;12.59;49.37;101491.28;4885063;28;103112;-62
2021/01/10 07:32:20;;;;;;;7.47;5.40;;;;;;;12.58;49.44;101489.66;4882082;28;104595;-62
2021/01/10 07:34:45;;;;;;;7.85;5.57;;;;;;;12.65;49.08;101490.22;4867673;28;98109;-61
2021/01/10 07:37:15;;;;;;;7.03;5.47;;;;;;;12.64;49.18;101491.31;4883928;28;98055;-61
2021/01/10 07:39:53;;;;;;;7.10;5.63;;;;;;;12.62;49.32;101498.06;4896560;28;98374;-62
2021/01/10 07:42:21;;;;;;;7.03;5.45;;;;;;;12.67;49.23;101507.03;4898396;28;121959;-62
2021/01/10 07:44:54;;;;;;;6.90;5.38;;;;;;;12.69;49.29;101510.31;4895337;28;119151;-62
2021/01/10 07:47:31;;;;;;;;;;;;;;;12.61;49.64;101512.63;4898561;28;98220;-62
2021/01/10 07:50:07;;;;;;;7.32;5.10;;;;;;;12.64;49.67;101514.84;4898637;28;98447;-62
2021/01/10 07:52:53;;;;;;;8.55;5.53;;;;;;;12.66;49.51;101515.41;4896748;28;99019;-62
2021/01/10 07:55:19;;;;;;;8.25;5.68;;;;;;;12.69;49.75;101512.16;4912297;28;98531;-62
2021/01/10 07:58:00;;;;;;;8.15;6.00;;;;;;;12.69;49.76;101514.88;4920701;28;97690;-62
2021/01/10 08:00:49;;;;;;;7.47;5.95;;;;;;;12.72;49.96;101517.06;4919055;28;98414;-62
2021/01/10 08:03:25;;;;;;;6.78;5.38;;;;;;;12.71;50.29;101520.88;4921597;28;98379;-62
2021/01/10 08:05:57;;;;;;;7.22;5.63;;;;;;;12.69;50.45;101529.25;4872056;28;98138;-62
2021/01/10 08:08:39;;;;;;;8.00;5.75;;;;;;;12.70;50.43;101524.66;4883343;28;97936;-62
2021/01/10 08:11:05;;;;;;;6.93;5.30;;;;;;;12.73;50.54;101534.94;4898849;28;98513;-62
2021/01/10 08:13:38;;;;;;;8.20;5.60;;;;;;;12.73;50.57;101527.66;4901310;28;98677;-62
2021/01/10 08:16:12;;;;;;;7.88;5.88;;;;;;;12.71;50.75;101529.78;4901455;28;98076;-61
2021/01/10 08:18:44;;;;;;;6.63;5.25;;;;;;;12.74;50.94;101532.00;4901230;28;111259;-62
2021/01/10 08:21:13;;;;;;;7.63;5.60;;;;;;;12.74;50.91;101539.28;4900489;28;100827;-62
2021/01/10 08:23:41;;;;;;;7.03;5.55;;;;;;;12.76;50.98;101537.13;4901502;28;98878;-62
2021/01/10 08:26:09;;;;;;;6.60;5.53;;;;;;;12.73;51.05;101537.63;4900444;28;119215;-62
2021/01/10 08:28:49;;;;;;;7.07;5.15;;;;;;;12.75;50.91;101540.91;4901033;28;98007;-62
2021/01/10 08:31:19;;;;;;;6.63;5.07;;;;;;;12.75;50.99;101541.75;4900073;28;120191;-62
2021/01/10 08:33:45;;;;;;;8.00;5.70;;;;;;;12.75;50.94;101541.75;4913117;28;116717;-62
2021/01/10 08:36:20;;;;;;;7.20;5.28;;;;;;;12.75;51.07;101541.75;4919263;28;127495;-62
2021/01/10 08:38:51;;;;;;;7.55;5.70;;;;;;;12.80;51.17;101537.44;4902763;28;97979;-62
2021/01/10 08:41:36;;;;;;;6.65;5.22;;;;;;;12.81;51.01;101541.78;4919614;28;98438;-62
2021/01/10 08:44:08;;;;;;;7.72;5.40;;;;;;;12.80;51.21;101550.97;4920259;28;98500;-62
2021/01/10 08:46:37;;;;;;;7.22;5.20;;;;;;;12.80;51.01;101548.28;4913317;28;98501;-62
2021/01/10 08:49:03;;;;;;;6.95;5.18;;;;;;;12.79;51.33;101555.56;4899546;28;109474;-62
2021/01/10 08:51:41;;;;;;;7.53;5.18;;;;;;;12.79;51.19;101547.44;4899778;28;114221;-62
2021/01/10 08:54:17;;;;;;;6.55;5.13;;;;;;;12.80;51.16;101559.09;4897588;28;99176;-62
2021/01/10 08:56:44;;;;;;;6.25;5.07;;;;;;;12.80;51.01;101559.91;4881113;28;98177;-62
2021/01/10 08:59:11;;;;;;;6.57;4.97;;;;;;;12.83;51.33;101562.09;4881607;28;103893;-62
2021/01/10 09:01:37;;;;;;;6.07;4.78;;;;;;;12.82;50.97;101565.88;4877666;28;117153;-62
2021/01/10 09:04:11;;;;;;;6.65;4.85;;;;;;;12.83;50.94;101564.81;4880418;28;109064;-62
2021/01/10 09:07:06;;;;;;;6.00;4.70;;;;;;;12.85;50.90;101567.25;4880438;28;98422;-62
2021/01/10 09:09:51;;;;;;;6.15;4.20;;;;;;;12.86;51.12;101569.72;4881071;28;98187;-62
2021/01/10 09:12:38;;;;;;;5.45;4.75;;;;;;;12.84;51.03;101579.16;4877673;28;98129;-61
2021/01/10 09:15:34;;;;;;;16.00;9.20;;;;;;;12.83;50.83;101578.34;4863204;28;98975;-63
2021/01/10 09:18:09;;;;;;;18.17;10.32;;;;;;;12.87;50.83;101576.75;4871832;28;98579;-61
2021/01/10 09:20:56;;;;;;;16.75;9.73;;;;;;;12.88;50.80;101574.84;4863781;28;98481;-61
2021/01/10 09:23:23;;;;;;;16.70;9.45;;;;;;;12.89;50.87;101580.03;4861266;28;98420;-61
2021/01/10 09:25:49;;;;;;;15.70;9.10;;;;;;;12.90;50.80;101578.13;4859675;28;107910;-61
2021/01/10 09:28:15;;;;;;;14.98;9.25;;;;;;;12.92;50.75;101578.69;4874322;28;99526;-62
2021/01/10 09:30:52;;;;;;;11.75;8.10;;;;;;;12.94;50.84;101584.69;4880938;28;97874;-62
2021/01/10 09:33:27;;;;;;;11.75;7.80;;;;;;;12.95;50.64;101584.41;4861669;28;98254;-62
2021/01/10 09:35:54;;;;;;;10.38;6.97;;;;;;;12.96;50.76;101586.03;4880251;28;98649;-62
2021/01/10 09:38:22;;;;;;;12.93;7.43;;;;;;;12.96;51.28;101579.81;4879464;28;115930;-61
2021/01/10 09:41:08;;;;;;;9.82;6.68;;;;;;;12.96;50.82;101572.50;4879878;28;98026;-62
2021/01/10 09:43:46;;;;;;;10.18;6.38;;;;;;;13.01;50.80;101577.16;4880264;28;98457;-62
2021/01/10 09:46:35;;;;;;;10.07;6.45;;;;;;;13.03;50.83;101569.59;4880647;28;98630;-62
2021/01/10 09:49:05;;;;;;;9.23;6.45;;;;;;;13.09;50.98;101567.78;4880557;28;98651;-61
2021/01/10 09:51:52;;;;;;;8.75;6.30;;;;;;;13.08;50.89;101575.03;4863245;28;99691;-61
2021/01/10 09:54:22;;;;;;;8.85;5.90;;;;;;;13.10;50.85;101575.63;4883961;28;100569;-62
2021/01/10 09:56:50;;;;;;;7.88;5.70;;;;;;;13.12;51.09;101575.34;4898987;28;98621;-61
2021/01/10 09:59:41;;;;;;;8.50;6.38;;;;;;;13.07;51.14;101572.59;4898772;28;98526;-61
2021/01/10 10:02:13;;;;;;;7.50;5.70;;;;;;;13.11;51.49;101566.41;4899844;28;97729;-62
2021/01/10 10:04:40;;;;;;;8.77;6.25;;;;;;;13.11;51.34;101561.00;4897530;28;98364;-62
2021/01/10 10:07:06;;;;;;;9.90;8.35;;;;;;;13.10;51.40;101563.97;4898593;28;98600;-62
2021/01/10 10:09:50;;;;;;;9.57;8.57;;;;;;;13.08;51.72;101560.69;4881790;28;98068;-61
2021/01/10 10:12:16;;;;;;;9.27;8.27;;;;;;;13.14;51.54;101565.09;4899131;28;98202;-61
2021/01/10 10:15:07;;;;;;;8.73;7.35;;;;;;;13.09;51.70;101557.75;4881861;28;105491;-61
2021/01/10 10:17:37;;;;;;;8.43;7.28;;;;;;;13.12;51.59;101556.41;4896686;28;98994;-61
2021/01/10 10:20:09;;;;;;;9.23;7.47;;;;;;;13.12;51.61;101556.41;4899781;28;98253;-61
2021/01/10 10:22:38;;;;;;;8.82;7.57;;;;;;;13.14;51.31;101554.25;4896803;28;98172;-61
2021/01/10 10:25:07;;;;;;;8.52;7.35;;;;;;;13.13;51.46;101558.06;4881361;28;99050;-61
2021/01/10 10:27:33;;;;;;;7.68;6.82;;;;;;;13.13;51.60;101558.88;4898242;28;99185;-62
2021/01/10 10:30:00;;;;;;;8.23;6.60;;;;;;;13.15;51.51;101554.00;4899398;28;115573;-61
2021/01/10 10:32:26;;;;;;;9.75;7.15;;;;;;;13.18;51.41;101555.38;4898466;28;98043;-61
2021/01/10 10:34:53;;;;;;;8.43;7.18;;;;;;;13.19;51.40;101555.13;4899040;28;99103;-61
2021/01/10 10:37:19;;;;;;;9.15;7.05;;;;;;;13.18;51.43;101556.19;4880974;28;98491;-61
2021/01/10 10:39:46;;;;;;;8.68;7.40;;;;;;;13.23;51.52;101553.56;4898524;28;124484;-61
2021/01/10 10:42:15;;;;;;;8.63;7.38;;;;;;;13.26;51.24;101552.22;4898718;28;98023;-61
2021/01/10 10:44:42;;;;;;;8.63;7.28;;;;;;;13.27;51.17;101551.97;4899182;28;98648;-61
2021/01/10 10:47:15;;;;;;;9.18;7.18;;;;;;;13.30;50.87;101547.94;4898799;28;98534;-61
2021/01/10 10:49:42;;;;;;;8.85;7.18;;;;;;;13.35;50.93;101549.84;4880986;28;99093;-61
2021/01/10 10:52:12;;;;;;;8.48;7.15;;;;;;;13.37;51.07;101545.00;4902668;28;98123;-61
2021/01/10 10:54:38;;;;;;;7.78;6.88;;;;;;;13.40;50.74;101544.47;4901760;28;104056;-61
2021/01/10 10:57:06;;;;;;;8.32;7.13;;;;;;;13.41;50.77;101543.41;4901693;28;99122;-61
2021/01/10 10:59:32;;;;;;;7.93;6.50;;;;;;;13.43;50.73;101536.63;4901838;28;98240;-61
2021/01/10 11:01:58;;;;;;;7.45;6.40;;;;;;;13.45;50.77;101541.81;4902177;28;97922;-61
2021/01/10 11:04:25;;;;;;;6.53;5.85;;;;;;;13.46;50.77;101538.03;4901696;28;99271;-61
2021/01/10 11:06:51;;;;;;;6.88;5.78;;;;;;;13.48;50.71;101549.44;4882922;28;128903;-61
2021/01/10 11:09:17;;;;;;;6.63;5.90;;;;;;;13.48;50.56;101542.13;4901687;28;119449;-61
2021/01/10 11:11:49;;;;;;;5.78;5.13;;;;;;;13.50;51.05;101541.84;4901152;28;118700;-61
2021/01/10 11:14:16;;;;;;;6.43;5.70;;;;;;;13.53;50.69;101527.78;4883600;28;98469;-61
2021/01/10 11:16:51;;;;;;;6.43;5.68;;;;;;;13.57;50.44;101530.78;4883704;28;98447;-60
2021/01/10 11:19:17;;;;;;;6.55;5.47;;;;;;;13.58;50.56;101529.69;4901405;28;98458;-61
2021/01/10 11:21:46;;;;;;;6.47;5.68;;;;;;;13.61;50.70;101526.47;4901277;28;109697;-61
2021/01/10 11:24:13;;;;;;;6.25;5.30;;;;;;;13.62;50.63;101526.19;4900725;28;99115;-61
2021/01/10 11:26:40;;;;;;;7.03;5.47;;;;;;;13.63;50.85;101514.28;4901634;28;99053;-61
2021/01/10 11:29:07;;;;;;;5.80;5.20;;;;;;;13.67;50.81;101514.56;4901248;28;117987;-61
2021/01/10 11:31:34;;;;;;;6.03;5.35;;;;;;;13.69;50.79;101515.13;4900875;28;98786;-61
2021/01/10 11:34:04;;;;;;;6.57;5.50;;;;;;;13.69;50.83;101512.44;4901286;28;98714;-61
2021/01/10 11:36:30;;;;;;;6.40;5.53;;;;;;;13.68;51.13;101518.94;4901261;28;117571;-61
2021/01/10 11:38:56;;;;;;;7.53;6.53;;;;;;;13.64;50.90;101518.63;4901328;28;114217;-61